createdAt,value
2019-05-03T00:04:31.597Z,99.90
2019-05-03T00:09:39.120Z,99.90
2019-05-03T00:14:48.392Z,99.90
2019-05-03T00:19:55.713Z,99.90
2019-05-03T00:25:08.102Z,99.90
2019-05-03T00:30:12.685Z,99.90
2019-05-03T00:35:26.292Z,99.90
2019-05-03T00:40:33.401Z,99.90
2019-05-03T00:45:42.228Z,99.90
2019-05-03T00:50:51.640Z,99.90
2019-05-03T00:55:58.378Z,99.90
2019-05-03T01:01:05.935Z,99.90
2019-05-03T01:06:13.249Z,99.90
2019-05-03T01:11:22.238Z,99.90
2019-05-03T01:16:31.515Z,99.90
2019-05-03T01:21:38.679Z,99.90
2019-05-03T01:26:46.181Z,99.90
2019-05-03T01:31:53.611Z,99.90
2019-05-03T01:37:02.592Z,99.90
2019-05-03T01:42:11.875Z,99.90
2019-05-03T01:47:26.179Z,99.90
2019-05-03T01:52:36.995Z,99.90
2019-05-03T01:57:44.319Z,99.90
2019-05-03T02:03:12.274Z,99.90
2019-05-03T02:08:19.216Z,99.90
2019-05-03T02:13:26.323Z,99.90
2019-05-03T02:18:35.035Z,99.90
2019-05-03T02:23:43.322Z,99.90
2019-05-03T02:28:52.599Z,99.90
2019-05-03T02:33:59.270Z,99.90
2019-05-03T02:39:13.332Z,99.90
2019-05-03T02:44:21.917Z,99.90
2019-05-03T02:49:47.629Z,99.90
2019-05-03T02:54:55.393Z,99.90
2019-05-03T03:00:05.092Z,99.90
2019-05-03T03:05:16.308Z,99.90
2019-05-03T03:10:22.090Z,99.90
2019-05-03T03:15:32.504Z,99.90
2019-05-03T03:20:40.876Z,99.90
2019-05-03T03:25:50.959Z,99.90
2019-05-03T03:31:29.260Z,99.90
2019-05-03T03:36:58.781Z,99.90
2019-05-03T03:41:57.137Z,99.90
2019-05-03T03:47:06.310Z,99.90
2019-05-03T03:52:16.128Z,99.90
2019-05-03T03:57:26.809Z,99.90
2019-05-03T04:02:35.348Z,99.90
2019-05-03T04:07:46.165Z,99.90
2019-05-03T04:12:52.635Z,99.90
2019-05-03T04:18:17.430Z,99.90
2019-05-03T04:23:26.421Z,99.90
2019-05-03T04:28:36.161Z,99.90
2019-05-03T04:33:45.089Z,99.90
2019-05-03T04:38:56.057Z,99.90
2019-05-03T04:44:01.926Z,99.90
2019-05-03T04:49:09.076Z,99.90
2019-05-03T04:54:28.914Z,99.90
2019-05-03T04:59:37.579Z,99.90
2019-05-03T05:04:46.311Z,99.90
2019-05-03T05:09:56.040Z,99.90
2019-05-03T05:15:05.117Z,99.90
2019-05-03T05:20:21.314Z,99.90
2019-05-03T05:25:30.392Z,99.90
2019-05-03T05:30:37.824Z,99.90
2019-05-03T05:35:44.967Z,99.90
2019-05-03T05:40:52.164Z,99.90
2019-05-03T05:45:59.330Z,99.90
2019-05-03T05:51:06.581Z,99.90
2019-05-03T05:56:36.453Z,99.90
2019-05-03T06:01:52.365Z,99.90
2019-05-03T06:07:17.510Z,99.90
2019-05-03T06:12:30.561Z,99.90
2019-05-03T06:17:45.077Z,99.90
2019-05-03T06:23:05.311Z,99.90
2019-05-03T06:28:22.518Z,99.90
2019-05-03T06:33:29.642Z,99.90
2019-05-03T06:38:37.113Z,99.90
2019-05-03T06:43:48.400Z,99.90
2019-05-03T06:48:54.313Z,99.90
2019-05-03T06:54:01.898Z,99.90
2019-05-03T06:59:14.380Z,99.90
2019-05-03T07:04:25.543Z,99.90
2019-05-03T07:09:44.468Z,99.90
2019-05-03T07:14:51.750Z,99.90
2019-05-03T07:19:58.868Z,99.90
2019-05-03T07:25:06.367Z,99.90
2019-05-03T07:30:15.525Z,99.90
2019-05-03T07:35:22.356Z,99.90
2019-05-03T07:40:29.488Z,99.90
2019-05-03T07:45:36.478Z,99.90
2019-05-03T07:50:44.724Z,99.90
2019-05-03T07:56:00.765Z,99.90
2019-05-03T08:01:11.642Z,99.90
2019-05-03T08:06:18.845Z,99.90
2019-05-03T08:11:25.929Z,99.90
2019-05-03T08:16:35.061Z,99.90
2019-05-03T08:21:41.925Z,99.90
2019-05-03T08:26:50.045Z,99.90
2019-05-03T08:32:06.898Z,99.90
2019-05-03T08:37:19.948Z,99.90
2019-05-03T08:42:28.159Z,99.90
2019-05-03T08:47:35.238Z,98.20
2019-05-03T08:52:44.642Z,99.90
2019-05-03T08:57:54.952Z,97.40
2019-05-03T09:03:01.290Z,97.00
2019-05-03T09:08:08.291Z,97.20
2019-05-03T09:13:17.471Z,99.00
2019-05-03T09:18:25.854Z,97.00
2019-05-03T09:23:35.668Z,97.10
2019-05-03T09:28:45.223Z,98.70
2019-05-03T09:33:51.662Z,97.10
2019-05-03T09:38:58.858Z,92.60
2019-05-03T09:44:06.206Z,88.30
2019-05-03T09:49:16.244Z,83.30
2019-05-03T09:54:27.315Z,75.20
2019-05-03T09:59:35.036Z,74.00
2019-05-03T10:04:44.490Z,93.70
2019-05-03T10:09:51.038Z,95.30
2019-05-03T10:14:58.171Z,97.00
2019-05-03T10:20:07.739Z,95.50
2019-05-03T10:25:18.988Z,94.00
2019-05-03T10:30:27.734Z,94.60
2019-05-03T10:35:35.495Z,94.00
2019-05-03T10:40:45.090Z,87.60
2019-05-03T10:45:51.388Z,76.30
2019-05-03T10:50:59.729Z,59.40
2019-05-03T10:56:22.669Z,57.00
2019-05-03T11:01:35.874Z,54.20
2019-05-03T11:06:45.516Z,52.00
2019-05-03T11:11:52.287Z,55.80
2019-05-03T11:17:00.647Z,55.50
2019-05-03T11:22:07.851Z,60.40
2019-05-03T11:27:24.696Z,79.40
2019-05-03T11:32:56.380Z,65.30
2019-05-03T11:38:16.693Z,64.70
2019-05-03T11:43:24.718Z,65.40
2019-05-03T11:48:34.746Z,60.10
2019-05-03T11:53:41.387Z,59.10
2019-05-03T11:58:48.718Z,58.10
2019-05-03T12:03:59.909Z,61.50
2019-05-03T12:09:07.801Z,60.50
2019-05-03T12:14:16.121Z,59.20
2019-05-03T12:19:30.043Z,56.50
2019-05-03T12:24:32.620Z,57.60
2019-05-03T12:29:40.218Z,59.00
2019-05-03T12:34:47.358Z,61.60
2019-05-03T12:39:54.872Z,58.70
2019-05-03T12:45:02.153Z,54.10
2019-05-03T12:50:09.569Z,52.10
2019-05-03T12:55:16.769Z,51.10
2019-05-03T13:00:48.680Z,46.20
2019-05-03T13:05:55.862Z,43.00
2019-05-03T13:11:05.044Z,40.80
2019-05-03T13:16:15.370Z,36.60
2019-05-03T13:21:22.573Z,37.80
2019-05-03T13:26:29.691Z,41.20
2019-05-03T13:31:37.066Z,41.90
2019-05-03T13:36:45.658Z,43.60
2019-05-03T13:41:54.852Z,48.60
2019-05-03T13:47:01.682Z,51.00
2019-05-03T13:52:08.806Z,50.10
2019-05-03T13:57:15.937Z,54.50
2019-05-03T14:02:23.069Z,56.80
2019-05-03T14:07:30.260Z,60.10
2019-05-03T14:12:37.360Z,67.30
2019-05-03T14:17:44.580Z,71.70
2019-05-03T14:22:52.509Z,91.60
2019-05-03T14:27:59.774Z,95.80
2019-05-03T14:33:07.010Z,98.30
2019-05-03T14:38:15.128Z,99.80
2019-05-03T14:43:24.709Z,99.90
2019-05-03T14:48:31.337Z,99.90
2019-05-03T14:53:38.463Z,98.00
2019-05-03T14:59:03.079Z,96.70
2019-05-03T15:04:10.448Z,95.00
2019-05-03T15:09:19.121Z,77.20
2019-05-03T15:14:26.485Z,80.80
2019-05-03T15:19:34.880Z,90.00
2019-05-03T15:24:42.248Z,92.90
2019-05-03T15:29:49.515Z,95.80
2019-05-03T15:34:57.592Z,97.80
2019-05-03T15:40:06.176Z,99.20
2019-05-03T15:45:51.149Z,99.90
2019-05-03T15:50:58.816Z,99.90
2019-05-03T15:56:06.044Z,99.90
2019-05-03T16:01:15.171Z,99.90
2019-05-03T16:06:21.986Z,99.90
2019-05-03T16:11:29.097Z,98.80
2019-05-03T16:16:36.276Z,98.30
2019-05-03T16:21:45.300Z,96.60
2019-05-03T16:27:24.817Z,95.50
2019-05-03T16:32:32.194Z,95.20
2019-05-03T16:37:39.353Z,95.50
2019-05-03T16:42:46.571Z,96.60
2019-05-03T16:47:53.661Z,97.90
2019-05-03T16:53:00.870Z,99.20
2019-05-03T16:58:08.154Z,99.90
2019-05-03T17:03:17.229Z,99.90
2019-05-03T17:08:56.654Z,99.90
2019-05-03T17:14:02.455Z,99.90
2019-05-03T17:19:11.165Z,99.90
2019-05-03T17:24:18.883Z,99.90
2019-05-03T17:29:26.215Z,99.90
2019-05-03T17:34:34.662Z,99.90
2019-05-03T17:40:06.841Z,99.90
2019-05-03T17:45:16.139Z,99.90
2019-05-03T17:50:23.587Z,99.90
2019-05-03T17:55:58.555Z,99.90
2019-05-03T18:01:16.943Z,99.90
2019-05-03T18:06:27.144Z,99.90
2019-05-03T18:11:38.732Z,99.90
2019-05-03T18:16:46.527Z,99.90
2019-05-03T18:21:55.328Z,99.90
2019-05-03T18:27:02.517Z,99.90
2019-05-03T18:32:09.765Z,99.90
2019-05-03T18:37:16.850Z,99.90
2019-05-03T18:42:30.911Z,99.90
2019-05-03T18:47:38.109Z,99.90
2019-05-03T18:52:45.220Z,99.90
2019-05-03T18:57:52.439Z,99.90
2019-05-03T19:02:59.730Z,99.90
2019-05-03T19:08:31.678Z,99.90
2019-05-03T19:13:44.834Z,99.90
2019-05-03T19:18:52.287Z,99.90
2019-05-03T19:23:59.418Z,99.90
2019-05-03T19:29:06.733Z,99.90
2019-05-03T19:34:15.452Z,99.90
2019-05-03T19:39:22.918Z,99.90
2019-05-03T19:44:31.764Z,99.90
2019-05-03T19:49:38.890Z,99.90
2019-05-03T19:54:46.097Z,99.90
2019-05-03T19:59:56.741Z,99.90
2019-05-03T20:05:21.053Z,99.90
2019-05-03T20:10:29.226Z,99.90
2019-05-03T20:15:36.344Z,99.90
2019-05-03T20:20:44.672Z,99.90
2019-05-03T20:25:51.925Z,99.90
2019-05-03T20:30:59.038Z,99.90
2019-05-03T20:36:06.299Z,99.90
2019-05-03T20:41:14.838Z,99.90
2019-05-03T20:46:32.915Z,99.90
2019-05-03T20:51:40.054Z,99.90
2019-05-03T20:56:48.360Z,99.90
2019-05-03T21:01:55.790Z,99.90
2019-05-03T21:07:04.701Z,99.90
2019-05-03T21:12:12.104Z,99.90
2019-05-03T21:17:30.263Z,99.90
2019-05-03T21:22:44.329Z,99.90
2019-05-03T21:27:52.007Z,99.90
2019-05-03T21:32:59.081Z,99.90
2019-05-03T21:38:06.170Z,99.90
2019-05-03T21:43:15.158Z,99.90
2019-05-03T21:48:26.236Z,99.90
2019-05-03T21:53:34.473Z,99.90
2019-05-03T21:58:42.280Z,99.90
2019-05-03T22:03:49.272Z,99.90
2019-05-03T22:08:58.388Z,99.90
2019-05-03T22:14:09.555Z,99.90
2019-05-03T22:19:25.060Z,99.90
2019-05-03T22:24:36.937Z,99.90
2019-05-03T22:29:44.748Z,99.90
2019-05-03T22:34:52.070Z,99.90
2019-05-03T22:39:59.160Z,99.90
2019-05-03T22:45:06.774Z,99.90
2019-05-03T22:50:14.940Z,99.90
2019-05-03T22:55:24.639Z,99.90
2019-05-03T23:00:31.535Z,99.90
2019-05-03T23:05:38.594Z,99.90
2019-05-03T23:10:49.276Z,99.90
2019-05-03T23:15:57.985Z,99.90
2019-05-03T23:21:15.204Z,99.90
2019-05-03T23:26:22.606Z,99.90
2019-05-03T23:31:29.772Z,99.90
2019-05-03T23:36:37.458Z,99.90
2019-05-03T23:41:44.530Z,99.90
2019-05-03T23:47:14.588Z,99.90
2019-05-03T23:52:35.592Z,99.90
2019-05-03T23:57:44.645Z,99.90
